createdAt,value
2023-07-03T00:03:59.963Z,100658.00
2023-07-03T00:09:05.481Z,100660.19
2023-07-03T00:14:09.119Z,100654.50
2023-07-03T00:19:12.813Z,100644.75
2023-07-03T00:24:17.362Z,100642.06
2023-07-03T00:29:20.986Z,100646.81
2023-07-03T00:34:24.622Z,100643.16
2023-07-03T00:39:30.104Z,100649.56
2023-07-03T00:44:33.769Z,100633.41
2023-07-03T00:49:37.698Z,100632.72
2023-07-03T00:54:43.329Z,100635.88
2023-07-03T00:59:47.184Z,100628.63
2023-07-03T01:04:52.967Z,100622.66
2023-07-03T01:10:03.814Z,100618.91
2023-07-03T01:15:12.104Z,100606.09
2023-07-03T01:20:19.197Z,100609.25
2023-07-03T01:25:26.018Z,100611.63
2023-07-03T01:30:30.227Z,100609.34
2023-07-03T01:35:34.534Z,100606.41
2023-07-03T01:40:40.638Z,100612.00
2023-07-03T01:45:46.053Z,100598.84
2023-07-03T01:50:50.229Z,100605.44
2023-07-03T01:55:58.245Z,100612.59
2023-07-03T02:01:06.551Z,100620.28
2023-07-03T02:06:20.816Z,100622.03
2023-07-03T02:11:28.856Z,100620.00
2023-07-03T02:16:32.743Z,100620.31
2023-07-03T02:21:36.554Z,100621.13
2023-07-03T02:26:41.889Z,100626.34
2023-07-03T02:31:45.707Z,100623.94
2023-07-03T02:36:50.121Z,100631.41
2023-07-03T02:41:54.881Z,100627.13
2023-07-03T02:46:58.612Z,100630.22
2023-07-03T02:52:02.376Z,100640.66
2023-07-03T02:57:07.982Z,100638.53
2023-07-03T03:02:11.700Z,100630.13
2023-07-03T03:07:15.464Z,100639.66
2023-07-03T03:12:20.766Z,100631.03
2023-07-03T03:17:24.516Z,100621.59
2023-07-03T03:22:28.150Z,100634.56
2023-07-03T03:27:33.458Z,100646.41
2023-07-03T03:32:37.159Z,100648.81
2023-07-03T03:37:41.002Z,100644.72
2023-07-03T03:42:46.311Z,100656.94
2023-07-03T03:47:50.268Z,100668.34
2023-07-03T03:52:53.986Z,100673.84
2023-07-03T03:57:59.263Z,100673.56
2023-07-03T04:03:02.974Z,100680.34
2023-07-03T04:08:06.679Z,100673.78
2023-07-03T04:13:12.121Z,100683.00
2023-07-03T04:18:15.753Z,100688.06
2023-07-03T04:23:19.677Z,100691.56
2023-07-03T04:28:25.758Z,100696.09
2023-07-03T04:33:29.382Z,100702.19
2023-07-03T04:38:33.183Z,100712.25
2023-07-03T04:43:39.381Z,100722.94
2023-07-03T04:48:43.043Z,100712.13
2023-07-03T04:53:46.752Z,100721.22
2023-07-03T04:58:52.615Z,100730.69
2023-07-03T05:03:56.284Z,100727.72
2023-07-03T05:08:59.976Z,100746.88
2023-07-03T05:14:05.298Z,100741.66
2023-07-03T05:19:09.064Z,100749.81
2023-07-03T05:24:12.773Z,100756.41
2023-07-03T05:29:18.063Z,100754.63
2023-07-03T05:34:21.761Z,100754.53
2023-07-03T05:39:25.452Z,100760.66
2023-07-03T05:44:30.754Z,100764.94
2023-07-03T05:49:34.400Z,100772.69
2023-07-03T05:54:38.139Z,100764.00
2023-07-03T05:59:43.495Z,100768.97
2023-07-03T06:04:47.635Z,100777.66
2023-07-03T06:09:52.317Z,100781.25
2023-07-03T06:14:58.159Z,100781.50
2023-07-03T06:20:01.804Z,100786.41
2023-07-03T06:25:05.943Z,100791.94
2023-07-03T06:30:12.261Z,100797.91
2023-07-03T06:35:16.620Z,100802.28
2023-07-03T06:40:20.450Z,100807.47
2023-07-03T06:45:25.777Z,100807.09
2023-07-03T06:50:28.690Z,100812.75
2023-07-03T06:55:32.436Z,100814.06
2023-07-03T07:00:37.978Z,100822.31
2023-07-03T07:05:41.698Z,100807.31
2023-07-03T07:10:45.825Z,100815.00
2023-07-03T07:15:51.368Z,100808.69
2023-07-03T07:20:55.471Z,100822.91
2023-07-03T07:25:59.243Z,100815.34
2023-07-03T07:31:04.661Z,100805.47
2023-07-03T07:36:13.131Z,100817.69
2023-07-03T07:41:16.808Z,100815.63
2023-07-03T07:46:22.935Z,100829.91
2023-07-03T07:51:26.631Z,100825.91
2023-07-03T07:56:31.800Z,100818.06
2023-07-03T08:01:39.456Z,100821.69
2023-07-03T08:06:42.425Z,100819.34
2023-07-03T08:11:46.139Z,100826.41
2023-07-03T08:16:51.620Z,100820.03
2023-07-03T08:21:54.590Z,100818.38
2023-07-03T08:26:58.208Z,100815.41
2023-07-03T08:32:03.757Z,100825.50
2023-07-03T08:37:08.962Z,100824.41
2023-07-03T08:42:18.445Z,100822.06
2023-07-03T08:47:27.886Z,100824.91
2023-07-03T08:52:39.659Z,100828.69
2023-07-03T08:57:43.378Z,100836.34
2023-07-03T09:02:54.362Z,100818.25
2023-07-03T09:08:01.882Z,100823.34
2023-07-03T09:13:09.890Z,100817.66
2023-07-03T09:18:20.335Z,100822.19
2023-07-03T09:23:27.604Z,100826.03
2023-07-03T09:28:33.935Z,100822.16
2023-07-03T09:33:39.335Z,100816.03
2023-07-03T09:38:42.988Z,100809.28
2023-07-03T09:43:46.709Z,100808.19
2023-07-03T09:48:52.767Z,100803.41
2023-07-03T09:53:58.449Z,100812.47
2023-07-03T09:59:02.357Z,100801.94
2023-07-03T10:14:33.872Z,100811.50
2023-07-03T10:19:39.538Z,100810.22
2023-07-03T10:24:43.460Z,100811.94
2023-07-03T10:29:52.652Z,100803.84
2023-07-03T10:35:04.620Z,100808.19
2023-07-03T10:40:16.572Z,100809.97
2023-07-03T10:45:21.284Z,100814.00
2023-07-03T10:50:31.689Z,100813.63
2023-07-03T10:55:42.322Z,100807.22
2023-07-03T11:00:55.446Z,100802.81
2023-07-03T11:06:05.600Z,100797.88
2023-07-03T11:11:19.521Z,100807.97
2023-07-03T11:16:28.124Z,100803.91
2023-07-03T11:32:00.724Z,100809.97
2023-07-03T11:47:49.792Z,100810.72
2023-07-03T11:52:55.185Z,100815.38
2023-07-03T11:58:14.505Z,100824.28
2023-07-03T12:03:49.984Z,100826.44
2023-07-03T12:08:55.712Z,100819.13
2023-07-03T12:13:58.756Z,100819.66
2023-07-03T12:19:07.973Z,100834.88
2023-07-03T12:24:25.550Z,100834.28
2023-07-03T12:29:29.824Z,100832.09
2023-07-03T12:34:35.326Z,100843.91
2023-07-03T12:39:43.201Z,100840.91
2023-07-03T12:44:46.840Z,100843.63
2023-07-03T12:49:53.326Z,100844.19
2023-07-03T12:55:13.918Z,100842.56
2023-07-03T13:00:33.190Z,100848.75
2023-07-03T13:05:38.216Z,100849.59
2023-07-03T13:10:58.829Z,100858.19
2023-07-03T13:16:15.091Z,100863.88
2023-07-03T13:21:22.202Z,100871.59
2023-07-03T13:26:28.131Z,100869.63
2023-07-03T13:31:46.546Z,100874.44
2023-07-03T13:37:05.445Z,100871.66
2023-07-03T13:42:11.002Z,100868.03
2023-07-03T13:47:15.138Z,100871.41
2023-07-03T13:52:18.765Z,100881.38
2023-07-03T13:57:24.039Z,100877.03
2023-07-03T14:02:42.451Z,100879.69
2023-07-03T14:07:51.436Z,100877.97
2023-07-03T14:12:56.811Z,100887.19
2023-07-03T14:18:00.683Z,100894.38
2023-07-03T14:23:05.176Z,100888.72
2023-07-03T14:28:10.471Z,100887.97
2023-07-03T14:33:14.153Z,100901.75
2023-07-03T14:38:17.914Z,100894.59
2023-07-03T14:43:23.759Z,100893.00
2023-07-03T14:48:27.388Z,100892.69
2023-07-03T14:53:31.694Z,100891.63
2023-07-03T14:58:36.985Z,100902.06
2023-07-03T15:03:41.563Z,100895.63
2023-07-03T15:08:45.338Z,100905.75
2023-07-03T15:13:50.701Z,100902.50
2023-07-03T15:18:54.364Z,100901.28
2023-07-03T15:23:58.015Z,100896.75
2023-07-03T15:29:03.921Z,100891.81
2023-07-03T15:34:07.648Z,100903.13
2023-07-03T15:39:11.276Z,100903.72
2023-07-03T15:44:17.261Z,100910.19
2023-07-03T15:49:20.896Z,100900.41
2023-07-03T15:54:24.575Z,100908.72
2023-07-03T15:59:30.327Z,100906.13
2023-07-03T16:04:34.038Z,100901.38
2023-07-03T16:09:37.983Z,100905.47
2023-07-03T16:14:43.701Z,100895.44
2023-07-03T16:20:05.409Z,100903.84
2023-07-03T16:25:09.867Z,100892.41
2023-07-03T16:30:15.314Z,100901.88
2023-07-03T16:35:19.327Z,100895.50
2023-07-03T16:40:22.973Z,100887.03
2023-07-03T16:45:29.702Z,100888.47
2023-07-03T16:50:33.394Z,100888.16
2023-07-03T16:55:37.074Z,100876.59
2023-07-03T17:00:42.385Z,100881.91
2023-07-03T17:05:46.058Z,100882.88
2023-07-03T17:10:49.670Z,100878.72
2023-07-03T17:15:55.598Z,100886.56
2023-07-03T17:20:59.230Z,100872.63
2023-07-03T17:26:03.259Z,100875.97
2023-07-03T17:31:08.612Z,100872.13
2023-07-03T17:36:12.269Z,100870.75
2023-07-03T17:41:17.816Z,100869.41
2023-07-03T17:46:25.868Z,100877.66
2023-07-03T17:51:29.498Z,100864.97
2023-07-03T17:56:33.137Z,100867.53
2023-07-03T18:01:38.557Z,100879.22
2023-07-03T18:06:42.435Z,100875.69
2023-07-03T18:11:46.233Z,100880.66
2023-07-03T18:16:51.690Z,100879.59
2023-07-03T18:21:55.396Z,100869.88
2023-07-03T18:26:59.037Z,100878.50
2023-07-03T18:32:04.396Z,100880.00
2023-07-03T18:37:08.121Z,100887.41
2023-07-03T18:42:12.060Z,100868.38
2023-07-03T18:47:17.331Z,100873.44
2023-07-03T18:52:20.949Z,100871.38
2023-07-03T18:57:24.578Z,100863.94
2023-07-03T19:02:29.905Z,100867.22
2023-07-03T19:07:33.621Z,100863.75
2023-07-03T19:12:37.331Z,100854.53
2023-07-03T19:17:43.424Z,100861.72
2023-07-03T19:22:47.077Z,100857.78
2023-07-03T19:27:50.963Z,100848.16
2023-07-03T19:32:56.751Z,100860.19
2023-07-03T19:38:00.446Z,100863.78
2023-07-03T19:43:04.273Z,100850.25
2023-07-03T19:48:10.911Z,100854.13
2023-07-03T19:53:14.628Z,100853.75
2023-07-03T19:58:18.290Z,100857.28
2023-07-03T20:03:24.171Z,100864.53
2023-07-03T20:08:27.988Z,100854.94
2023-07-03T20:13:31.739Z,100844.00
2023-07-03T20:18:37.121Z,100842.09
2023-07-03T20:23:40.849Z,100830.47
2023-07-03T20:28:44.466Z,100824.09
2023-07-03T20:33:50.777Z,100823.69
2023-07-03T20:38:56.039Z,100823.72
2023-07-03T20:43:59.645Z,100819.88
2023-07-03T20:49:04.966Z,100822.63
2023-07-03T20:54:08.827Z,100831.31
2023-07-03T20:59:12.483Z,100825.38
2023-07-03T21:04:17.783Z,100819.44
2023-07-03T21:09:21.524Z,100818.28
2023-07-03T21:14:25.462Z,100820.47
2023-07-03T21:19:30.731Z,100813.59
2023-07-03T21:24:34.390Z,100806.69
2023-07-03T21:29:38.099Z,100802.88
2023-07-03T21:34:43.347Z,100797.97
2023-07-03T21:39:46.965Z,100809.72
2023-07-03T21:44:50.603Z,100806.13
2023-07-03T21:49:55.877Z,100804.31
2023-07-03T21:54:59.481Z,100800.16
2023-07-03T22:00:03.241Z,100791.63
2023-07-03T22:05:09.866Z,100793.41
2023-07-03T22:10:13.530Z,100794.94
2023-07-03T22:15:17.165Z,100787.84
2023-07-03T22:20:22.483Z,100787.53
2023-07-03T22:25:26.373Z,100784.69
2023-07-03T22:30:30.017Z,100787.53
2023-07-03T22:35:35.329Z,100777.22
2023-07-03T22:40:39.133Z,100774.63
2023-07-03T22:45:42.758Z,100763.13
2023-07-03T22:50:54.952Z,100759.50
2023-07-03T22:55:58.653Z,100766.16
2023-07-03T23:01:08.473Z,100752.56
2023-07-03T23:06:13.774Z,100753.59
2023-07-03T23:11:17.430Z,100740.06
2023-07-03T23:16:21.087Z,100737.66
2023-07-03T23:21:26.483Z,100744.59
2023-07-03T23:26:30.152Z,100744.16
2023-07-03T23:31:33.822Z,100747.88
2023-07-03T23:36:40.224Z,100746.63
2023-07-03T23:41:43.870Z,100739.22
2023-07-03T23:46:47.578Z,100735.81
2023-07-03T23:51:52.974Z,100729.16
2023-07-03T23:56:56.721Z,100733.78
